createdAt,value
2022-11-29T00:02:45.312Z,58.70
2022-11-29T00:07:45.040Z,64.30
2022-11-29T00:12:44.921Z,81.60
2022-11-29T00:17:44.806Z,77.10
2022-11-29T00:22:44.803Z,96.20
2022-11-29T00:27:44.755Z,97.70
2022-11-29T00:32:44.740Z,117.10
2022-11-29T00:37:44.676Z,130.10
2022-11-29T00:42:44.631Z,128.40
2022-11-29T00:47:44.552Z,174.90
2022-11-29T00:52:44.578Z,168.20
2022-11-29T00:57:44.541Z,187.10
2022-11-29T01:02:44.418Z,127.10
2022-11-29T01:07:44.526Z,136.50
2022-11-29T01:12:44.243Z,141.90
2022-11-29T01:17:44.196Z,130.20
2022-11-29T01:22:44.229Z,117.70
2022-11-29T01:27:44.103Z,115.00
2022-11-29T01:32:44.155Z,110.90
2022-11-29T01:37:43.981Z,128.20
2022-11-29T01:42:43.996Z,133.30
2022-11-29T01:47:43.936Z,117.80
2022-11-29T01:52:43.817Z,116.50
2022-11-29T01:57:43.813Z,124.80
2022-11-29T02:02:43.770Z,95.90
2022-11-29T02:07:43.704Z,88.80
2022-11-29T02:12:43.569Z,97.20
2022-11-29T02:17:43.490Z,124.80
2022-11-29T02:22:43.497Z,106.80
2022-11-29T02:27:43.386Z,128.90
2022-11-29T02:32:43.324Z,141.90
2022-11-29T02:37:43.281Z,127.50
2022-11-29T02:42:43.197Z,141.00
2022-11-29T02:47:43.145Z,151.40
2022-11-29T02:52:43.138Z,157.00
2022-11-29T02:57:43.049Z,163.30
2022-11-29T03:02:43.042Z,197.80
2022-11-29T03:07:42.949Z,342.20
2022-11-29T03:12:42.883Z,306.40
2022-11-29T03:17:42.921Z,252.30
2022-11-29T03:22:42.810Z,338.90
2022-11-29T03:27:42.806Z,217.40
2022-11-29T03:32:42.736Z,248.30
2022-11-29T03:37:42.590Z,158.90
2022-11-29T03:42:42.581Z,155.00
2022-11-29T03:47:44.481Z,158.00
2022-11-29T03:52:42.450Z,196.40
2022-11-29T03:57:42.389Z,277.20
2022-11-29T04:02:42.405Z,130.80
2022-11-29T04:07:42.334Z,156.70
2022-11-29T04:12:42.204Z,142.70
2022-11-29T04:17:42.145Z,148.00
2022-11-29T04:22:42.075Z,131.30
2022-11-29T04:27:42.036Z,144.40
2022-11-29T04:32:41.999Z,195.40
2022-11-29T04:37:41.940Z,439.90
2022-11-29T04:42:42.923Z,295.80
2022-11-29T04:47:41.803Z,318.30
2022-11-29T04:52:41.751Z,271.50
2022-11-29T04:57:41.826Z,303.20
2022-11-29T05:02:41.796Z,273.30
2022-11-29T05:07:41.619Z,276.60
2022-11-29T05:12:41.527Z,284.90
2022-11-29T05:17:41.507Z,214.80
2022-11-29T05:22:41.408Z,200.90
2022-11-29T05:28:51.706Z,168.90
2022-11-29T05:33:51.670Z,173.30
2022-11-29T05:38:51.682Z,187.50
2022-11-29T05:43:51.562Z,176.20
2022-11-29T05:48:51.525Z,189.90
2022-11-29T05:53:51.454Z,147.50
2022-11-29T05:58:51.410Z,134.50
2022-11-29T06:03:51.361Z,119.10
2022-11-29T06:08:51.299Z,119.90
2022-11-29T06:13:51.235Z,152.70
2022-11-29T06:18:51.155Z,85.70
2022-11-29T06:23:51.109Z,105.40
2022-11-29T06:28:51.127Z,114.70
2022-11-29T06:33:51.087Z,95.20
2022-11-29T06:38:50.976Z,77.90
2022-11-29T06:43:50.929Z,85.60
2022-11-29T06:48:50.969Z,90.00
2022-11-29T06:53:50.883Z,96.60
2022-11-29T06:58:50.831Z,106.70
2022-11-29T07:03:50.690Z,123.00
2022-11-29T07:08:50.710Z,115.30
2022-11-29T07:13:50.604Z,100.00
2022-11-29T07:18:50.493Z,130.10
2022-11-29T07:23:50.484Z,111.90
2022-11-29T07:28:50.494Z,120.60
2022-11-29T07:33:50.415Z,116.00
2022-11-29T07:38:52.373Z,107.40
2022-11-29T07:43:50.252Z,107.20
2022-11-29T07:48:50.318Z,109.60
2022-11-29T07:53:50.140Z,109.80
2022-11-29T07:58:52.168Z,111.40
2022-11-29T08:03:50.043Z,125.40
2022-11-29T08:08:49.988Z,126.00
2022-11-29T08:13:50.996Z,117.80
2022-11-29T08:18:50.042Z,103.70
2022-11-29T08:23:50.806Z,111.40
2022-11-29T08:28:49.966Z,105.10
2022-11-29T08:33:49.767Z,115.60
2022-11-29T08:38:51.787Z,118.00
2022-11-29T08:43:50.568Z,114.80
2022-11-29T08:48:49.536Z,107.40
2022-11-29T08:53:49.461Z,117.20
2022-11-29T08:58:49.440Z,110.40
2022-11-29T09:03:49.435Z,107.70
2022-11-29T09:08:49.380Z,111.50
2022-11-29T09:13:49.402Z,101.70
2022-11-29T09:18:51.869Z,97.40
2022-11-29T09:23:49.151Z,112.10
2022-11-29T09:28:49.090Z,111.60
2022-11-29T09:33:49.029Z,107.10
2022-11-29T09:38:49.088Z,123.90
2022-11-29T09:43:49.990Z,134.10
2022-11-29T09:48:49.364Z,130.80
2022-11-29T09:53:49.017Z,103.40
2022-11-29T09:58:48.966Z,106.80
2022-11-29T10:03:48.795Z,97.20
2022-11-29T10:08:48.767Z,103.10
2022-11-29T10:13:48.703Z,101.80
2022-11-29T10:18:48.547Z,95.60
2022-11-29T10:23:48.554Z,84.00
2022-11-29T10:28:48.471Z,82.70
2022-11-29T10:33:49.617Z,74.30
2022-11-29T10:38:48.638Z,73.70
2022-11-29T10:43:48.456Z,72.60
2022-11-29T10:48:48.270Z,67.80
2022-11-29T10:53:48.255Z,63.80
2022-11-29T10:58:48.260Z,67.20
2022-11-29T11:03:52.651Z,73.50
2022-11-29T11:08:49.104Z,74.60
2022-11-29T11:13:50.043Z,151.40
2022-11-29T11:18:47.987Z,155.00
2022-11-29T11:23:47.997Z,138.80
2022-11-29T11:28:56.292Z,168.60
2022-11-29T11:33:47.697Z,152.80
2022-11-29T11:38:47.676Z,160.70
2022-11-29T11:43:49.621Z,156.30
2022-11-29T11:48:47.580Z,154.00
2022-11-29T11:53:47.506Z,146.30
2022-11-29T11:58:47.452Z,164.80
2022-11-29T12:03:47.404Z,206.20
2022-11-29T12:08:47.415Z,179.50
2022-11-29T12:13:47.284Z,159.40
2022-11-29T12:18:47.275Z,142.00
2022-11-29T12:23:47.181Z,158.10
2022-11-29T12:28:47.141Z,145.10
2022-11-29T12:33:47.207Z,142.40
2022-11-29T12:38:47.195Z,145.70
2022-11-29T12:43:47.064Z,153.40
2022-11-29T12:48:47.024Z,178.00
2022-11-29T12:53:46.973Z,154.80
2022-11-29T12:58:46.831Z,177.00
2022-11-29T13:03:46.753Z,177.60
2022-11-29T13:08:46.774Z,192.00
2022-11-29T13:13:47.753Z,212.40
2022-11-29T13:18:46.673Z,229.30
2022-11-29T13:24:07.728Z,258.80
2022-11-29T13:28:47.595Z,256.00
2022-11-29T13:33:46.403Z,308.10
2022-11-29T13:38:46.421Z,329.20
2022-11-29T13:43:46.294Z,297.00
2022-11-29T13:48:46.243Z,292.00
2022-11-29T13:53:49.186Z,285.40
2022-11-29T13:58:46.168Z,289.50
2022-11-29T14:03:46.109Z,306.30
2022-11-29T14:13:47.029Z,184.70
2022-11-29T14:18:45.960Z,219.10
2022-11-29T14:23:45.973Z,225.50
2022-11-29T14:28:45.904Z,219.10
2022-11-29T14:33:45.782Z,234.00
2022-11-29T14:38:45.726Z,237.20
2022-11-29T14:43:45.674Z,242.60
2022-11-29T14:48:45.676Z,182.10
2022-11-29T14:53:45.614Z,163.90
2022-11-29T14:58:45.519Z,178.70
2022-11-29T15:03:45.492Z,154.00
2022-11-29T15:08:45.416Z,165.70
2022-11-29T15:13:45.335Z,164.70
2022-11-29T15:18:45.295Z,225.50
2022-11-29T15:23:45.206Z,185.60
2022-11-29T15:28:45.186Z,188.30
2022-11-29T15:33:45.132Z,194.80
2022-11-29T15:38:45.026Z,186.80
2022-11-29T15:43:44.999Z,197.10
2022-11-29T15:48:44.935Z,156.40
2022-11-29T15:53:44.947Z,156.40
2022-11-29T15:58:44.809Z,140.40
2022-11-29T16:03:44.783Z,158.90
2022-11-29T16:08:44.702Z,168.60
2022-11-29T16:13:44.674Z,179.10
2022-11-29T16:18:44.636Z,167.50
2022-11-29T16:23:44.561Z,177.80
2022-11-29T16:28:44.516Z,197.60
2022-11-29T16:33:44.473Z,195.60
2022-11-29T16:38:44.393Z,190.70
2022-11-29T16:43:44.351Z,181.40
2022-11-29T16:48:44.273Z,162.20
2022-11-29T16:53:44.238Z,170.30
2022-11-29T16:59:25.439Z,169.90
2022-11-29T17:03:45.117Z,145.90
2022-11-29T17:08:44.060Z,163.70
2022-11-29T17:13:43.993Z,155.00
2022-11-29T17:18:43.964Z,157.00
2022-11-29T17:23:43.883Z,159.60
2022-11-29T17:28:52.162Z,145.30
2022-11-29T17:33:43.756Z,158.80
2022-11-29T17:38:43.765Z,143.70
2022-11-29T17:43:43.712Z,142.20
2022-11-29T17:48:43.689Z,137.60
2022-11-29T17:53:43.624Z,147.50
2022-11-29T17:58:43.518Z,127.10
2022-11-29T18:03:43.460Z,151.90
2022-11-29T18:08:43.414Z,143.40
2022-11-29T18:13:43.466Z,133.30
2022-11-29T18:18:43.324Z,136.80
2022-11-29T18:23:43.358Z,130.00
2022-11-29T18:28:43.253Z,146.60
2022-11-29T18:33:43.187Z,135.80
2022-11-29T18:38:43.115Z,120.30
2022-11-29T18:43:43.013Z,152.30
2022-11-29T18:48:43.009Z,131.70
2022-11-29T18:53:43.151Z,145.70
2022-11-29T18:58:42.907Z,145.10
2022-11-29T19:03:42.831Z,142.70
2022-11-29T19:08:42.931Z,142.50
2022-11-29T19:13:42.780Z,139.10
2022-11-29T19:18:42.714Z,157.00
2022-11-29T19:23:42.690Z,149.60
2022-11-29T19:28:42.571Z,139.30
2022-11-29T19:33:42.540Z,104.40
2022-11-29T19:38:43.328Z,124.80
2022-11-29T19:43:42.405Z,130.40
2022-11-29T19:48:42.362Z,135.70
2022-11-29T19:53:42.280Z,126.20
2022-11-29T19:58:42.208Z,137.40
2022-11-29T20:03:42.164Z,126.00
2022-11-29T20:08:42.187Z,121.20
2022-11-29T20:13:42.035Z,121.30
2022-11-29T20:18:47.123Z,106.40
2022-11-29T20:23:43.010Z,124.70
2022-11-29T20:28:41.958Z,125.20
2022-11-29T20:33:41.923Z,124.60
2022-11-29T20:38:41.859Z,135.20
2022-11-29T20:43:41.772Z,145.20
2022-11-29T20:48:41.691Z,153.90
2022-11-29T20:53:41.643Z,173.00
2022-11-29T20:58:42.581Z,176.30
2022-11-29T21:03:41.693Z,141.40
2022-11-29T21:08:41.565Z,145.50
2022-11-29T21:13:41.396Z,133.50
2022-11-29T21:18:41.342Z,161.40
2022-11-29T21:23:42.302Z,139.30
2022-11-29T21:28:41.156Z,146.60
2022-11-29T21:33:41.175Z,137.20
2022-11-29T21:38:41.166Z,153.20
2022-11-29T21:44:05.654Z,153.80
2022-11-29T21:48:42.005Z,150.90
2022-11-29T21:53:40.901Z,182.60
2022-11-29T21:58:40.934Z,195.40
2022-11-29T22:03:40.856Z,245.70
2022-11-29T22:08:40.826Z,205.10
2022-11-29T22:13:40.770Z,214.60
2022-11-29T22:18:40.698Z,208.20
2022-11-29T22:23:40.656Z,176.70
2022-11-29T22:28:40.537Z,192.10
2022-11-29T22:33:40.626Z,207.80
2022-11-29T22:38:40.515Z,234.50
2022-11-29T22:43:40.440Z,262.10
2022-11-29T22:48:40.335Z,269.30
2022-11-29T22:53:40.255Z,373.50
2022-11-29T22:58:40.204Z,309.70
2022-11-29T23:03:40.156Z,396.90
2022-11-29T23:08:40.151Z,466.90
2022-11-29T23:13:40.072Z,513.30
2022-11-29T23:18:43.429Z,589.60
2022-11-29T23:23:39.953Z,465.20
2022-11-29T23:28:39.874Z,554.60
2022-11-29T23:33:48.677Z,543.70
2022-11-29T23:38:39.724Z,495.60
2022-11-29T23:43:39.867Z,461.30
2022-11-29T23:48:39.649Z,668.50
2022-11-29T23:53:39.747Z,448.30
2022-11-29T23:58:39.556Z,574.20
